• Join FlightAware (Why Join?)
  • Login
  • US Flag 
07:08AM EDT


 

Airport Tracker/Info


-or-


 

Live Flight TrackerFlight Track Log ✈ N321FU ✈ 11-Nov-2013 ✈ KFXE - KDAB

Flight Track Log - Related Links

Times and Time Zones

All times are in EST time to prevent confusion due to time zone crossing. See the N321FU flight status page for this flight to view local times or setup timezone preferences in your user account.

Time Position Orientation Groundspeed Altitude Reporting Facility
EST Latitude Longitude Course Direction KTS MPH feet Rate Location/Type
02:21PM 27.0350 -80.4361 344° North 177 204 5,400  Level Miami Center
02:22PM 27.0847 -80.4519 344° North 171 197 5,600 60 Climbing Miami Center
02:23PM 27.1303 -80.4672 343° North 165 190 5,600  Level Miami Center
02:24PM 27.1758 -80.4803 346° North 165 190 5,600  Level Miami Center
02:25PM 27.2172 -80.4933 344° North 165 190 5,600  Level Miami Center
02:26PM 27.2689 -80.5114 343° North 165 190 5,600 -60 Level Miami Center
02:27PM 27.3144 -80.5244 346° North 165 190 5,500  Descending Miami Center
02:28PM 27.3622 -80.5422 342° North 165 190 5,600  Climbing Miami Center
02:29PM 27.4036 -80.5553 344° North 165 190 5,500 -60 Descending Miami Center
02:30PM 27.4492 -80.5683 346° North 165 190 5,500  Level Miami Center
02:31PM 27.5031 -80.5794 350° North 165 190 5,500  Level Miami Center
02:32PM 27.5508 -80.5881 351° North 165 190 5,500  Level Miami Center
02:33PM 27.5986 -80.5967 351° North 165 190 5,500  Level Miami Center
02:34PM 27.6444 -80.5983 358° North 170 196 5,500  Level Miami Center
02:35PM 27.6967 -80.6047 354° North 170 196 5,500  Level Miami Center
02:36PM 27.7444 -80.6131 351° North 175 201 5,500  Level Miami Center
02:37PM 27.7944 -80.6194 354° North 175 201 5,500  Level Miami Center
02:38PM 27.8381 -80.6233 355° North 180 207 5,500  Level Miami Center
02:39PM 27.8858 -80.6367 346° North 175 201 5,500  Level Miami Center
02:40PM 27.9500 -80.6500 350° North 181 208 5,500  Level Orlando TRACON
02:41PM 28.0000 -80.6667 344° North 198 228 5,500  Level Orlando TRACON
02:42PM 28.0500 -80.6667 360° North 175 201 5,500  Level Orlando TRACON
02:43PM 28.0833 -80.6667 360° North 173 199 5,500  Level Orlando TRACON
02:44PM 28.1333 -80.6833 344° North 176 203 5,500  Level Orlando TRACON
02:45PM 28.1667 -80.7000 336° Northwest 180 207 5,500  Level Orlando TRACON
02:46PM 28.2167 -80.7333 330° Northwest 180 207 5,500  Level Orlando TRACON
02:47PM 28.2667 -80.7500 344° North 180 207 5,500  Level Orlando TRACON
02:48PM 28.3167 -80.7667 344° North 179 206 5,500  Level Orlando TRACON
02:49PM 28.3667 -80.8000 330° Northwest 179 206 5,500  Level Orlando TRACON
02:50PM 28.4000 -80.8167 336° Northwest 179 206 5,500  Level Orlando TRACON
02:51PM 28.4500 -80.8333 344° North 177 204 5,500  Level Orlando TRACON
02:52PM 28.5000 -80.8500 344° North 178 205 5,500  Level Orlando TRACON
02:53PM 28.5500 -80.8667 344° North 178 205 5,500  Level Orlando TRACON
02:54PM 28.6000 -80.9000 330° Northwest 178 205 5,500 -240 Level Orlando TRACON
02:55PM 28.6500 -80.9167 344° North 192 221 5,000 -540 Descending Orlando TRACON
02:56PM 28.7000 -80.9333 344° North 197 227 4,500 -480 Descending Orlando TRACON
02:57PM 28.7500 -80.9667 330° Northwest 198 228 4,100 -420 Descending Orlando TRACON
02:59PM 28.8514 -80.9514 319° Northwest  Level FlightAware Approximate
03:06PM 29.1667 -81.0500 348° North  Level FlightAware Approximate
03:07PM 29.1799 -81.0581 348° North  Level Estimated
03:08PM 29.1799 -81.0581 348° North  Level Estimated
03:09PM 29.1799 -81.0581 348° North  Level Estimated
03:10PM 29.1799 -81.0581 348° North  Level Estimated
03:11PM 29.1799 -81.0581 348° North  Level Estimated
03:12PM 29.1799 -81.0581 348° North  Level Estimated
03:13PM 29.1799 -81.0581 348° North  Level Estimated
03:14PM 29.1799 -81.0581 348° North  Level Estimated
03:15PM 29.1799 -81.0581 348° North  Level Estimated
03:16PM 29.1799 -81.0581 348° North  Level Estimated
03:17PM 29.1799 -81.0581 348° North  Level Estimated
03:18PM 29.1799 -81.0581 348° North  Level Estimated
03:19PM 29.1799 -81.0581 348° North  Level Estimated
03:20PM 29.1799 -81.0581 348° North  Level Estimated
03:21PM 29.1799 -81.0581 348° North  Level Estimated
03:22PM 29.1799 -81.0581 348° North  Level Estimated
03:23PM 29.1799 -81.0581 348° North  Level Estimated
03:24PM 29.1799 -81.0581 348° North  Level Estimated
03:25PM 29.1799 -81.0581 348° North  Level Estimated
03:26PM 29.1799 -81.0581 348° North  Level Estimated
03:27PM 29.1799 -81.0581 348° North  Level Estimated